sensor_id;sensor_type;location;lat;lon;timestamp;temperature;humidity
57564;DHT22;43400;45.926;6.724;2022-09-09T00:01:28;16.90;92.20
57564;DHT22;43400;45.926;6.724;2022-09-09T00:09:28;16.90;92.30
57564;DHT22;43400;45.926;6.724;2022-09-09T00:12:09;16.90;92.20
57564;DHT22;43400;45.926;6.724;2022-09-09T00:14:59;16.90;93.00
57564;DHT22;43400;45.926;6.724;2022-09-09T00:18:12;16.90;93.30
57564;DHT22;43400;45.926;6.724;2022-09-09T00:23:36;16.80;93.70
57564;DHT22;43400;45.926;6.724;2022-09-09T00:26:16;16.80;92.80
57564;DHT22;43400;45.926;6.724;2022-09-09T00:31:39;16.90;91.90
57564;DHT22;43400;45.926;6.724;2022-09-09T00:34:18;16.80;92.70
57564;DHT22;43400;45.926;6.724;2022-09-09T00:36:52;16.70;92.70
57564;DHT22;43400;45.926;6.724;2022-09-09T00:47:53;16.80;93.50
57564;DHT22;43400;45.926;6.724;2022-09-09T00:53:36;16.70;94.40
57564;DHT22;43400;45.926;6.724;2022-09-09T00:56:16;16.70;94.30
57564;DHT22;43400;45.926;6.724;2022-09-09T00:59:24;16.70;94.60
57564;DHT22;43400;45.926;6.724;2022-09-09T01:01:59;16.60;93.50
57564;DHT22;43400;45.926;6.724;2022-09-09T01:04:35;16.60;92.90
57564;DHT22;43400;45.926;6.724;2022-09-09T01:07:18;16.60;93.00
57564;DHT22;43400;45.926;6.724;2022-09-09T01:09:58;16.50;93.30
57564;DHT22;43400;45.926;6.724;2022-09-09T01:12:42;16.50;93.20
57564;DHT22;43400;45.926;6.724;2022-09-09T01:15:22;16.50;93.20
57564;DHT22;43400;45.926;6.724;2022-09-09T01:18:04;16.50;93.40
57564;DHT22;43400;45.926;6.724;2022-09-09T01:26:46;16.50;94.70
57564;DHT22;43400;45.926;6.724;2022-09-09T01:29:21;16.50;95.20
57564;DHT22;43400;45.926;6.724;2022-09-09T01:31:54;16.50;95.20
57564;DHT22;43400;45.926;6.724;2022-09-09T01:34:30;16.50;95.40
57564;DHT22;43400;45.926;6.724;2022-09-09T01:37:06;16.60;95.70
57564;DHT22;43400;45.926;6.724;2022-09-09T01:39:41;16.60;96.50
57564;DHT22;43400;45.926;6.724;2022-09-09T01:42:15;16.60;95.70
57564;DHT22;43400;45.926;6.724;2022-09-09T01:44:47;16.50;95.90
57564;DHT22;43400;45.926;6.724;2022-09-09T01:47:19;16.50;96.40
57564;DHT22;43400;45.926;6.724;2022-09-09T01:49:50;16.60;96.30
57564;DHT22;43400;45.926;6.724;2022-09-09T01:52:22;16.60;95.90
57564;DHT22;43400;45.926;6.724;2022-09-09T01:54:54;16.60;95.80
57564;DHT22;43400;45.926;6.724;2022-09-09T01:57:32;16.60;95.10
57564;DHT22;43400;45.926;6.724;2022-09-09T02:00:13;16.50;94.50
57564;DHT22;43400;45.926;6.724;2022-09-09T02:05:38;16.50;95.30
57564;DHT22;43400;45.926;6.724;2022-09-09T02:10:44;16.60;94.10
57564;DHT22;43400;45.926;6.724;2022-09-09T02:13:19;16.70;92.60
57564;DHT22;43400;45.926;6.724;2022-09-09T02:16:07;16.70;92.40
57564;DHT22;43400;45.926;6.724;2022-09-09T02:18:51;16.70;93.70
57564;DHT22;43400;45.926;6.724;2022-09-09T02:21:24;16.60;93.60
57564;DHT22;43400;45.926;6.724;2022-09-09T02:23:58;16.60;92.90
57564;DHT22;43400;45.926;6.724;2022-09-09T02:26:34;16.70;92.20
57564;DHT22;43400;45.926;6.724;2022-09-09T02:29:23;16.70;92.40
57564;DHT22;43400;45.926;6.724;2022-09-09T02:31:58;16.70;92.70
57564;DHT22;43400;45.926;6.724;2022-09-09T02:34:35;16.60;93.50
57564;DHT22;43400;45.926;6.724;2022-09-09T02:37:09;16.40;97.40
57564;DHT22;43400;45.926;6.724;2022-09-09T02:39:42;16.10;99.00
57564;DHT22;43400;45.926;6.724;2022-09-09T02:42:13;16.00;99.90
57564;DHT22;43400;45.926;6.724;2022-09-09T02:44:45;16.00;99.90
57564;DHT22;43400;45.926;6.724;2022-09-09T02:50:32;15.80;99.90
57564;DHT22;43400;45.926;6.724;2022-09-09T02:56:11;15.70;99.90
57564;DHT22;43400;45.926;6.724;2022-09-09T02:58:40;15.60;99.90
57564;DHT22;43400;45.926;6.724;2022-09-09T03:01:12;15.60;99.90
57564;DHT22;43400;45.926;6.724;2022-09-09T03:03:44;15.60;99.90
57564;DHT22;43400;45.926;6.724;2022-09-09T03:06:16;15.70;99.90
57564;DHT22;43400;45.926;6.724;2022-09-09T03:08:48;15.70;99.90
57564;DHT22;43400;45.926;6.724;2022-09-09T03:11:19;15.60;99.90
57564;DHT22;43400;45.926;6.724;2022-09-09T03:13:51;15.70;99.90
57564;DHT22;43400;45.926;6.724;2022-09-09T03:16:23;15.70;99.90
57564;DHT22;43400;45.926;6.724;2022-09-09T03:18:55;15.70;99.90
57564;DHT22;43400;45.926;6.724;2022-09-09T03:21:26;15.70;99.90
57564;DHT22;43400;45.926;6.724;2022-09-09T03:23:58;15.60;99.90
57564;DHT22;43400;45.926;6.724;2022-09-09T03:26:30;15.50;99.90
57564;DHT22;43400;45.926;6.724;2022-09-09T03:29:01;15.30;99.90
57564;DHT22;43400;45.926;6.724;2022-09-09T03:31:36;15.30;99.90
57564;DHT22;43400;45.926;6.724;2022-09-09T03:34:07;15.30;99.90
57564;DHT22;43400;45.926;6.724;2022-09-09T03:36:39;15.20;99.90
57564;DHT22;43400;45.926;6.724;2022-09-09T03:39:11;15.10;99.90
57564;DHT22;43400;45.926;6.724;2022-09-09T03:41:42;15.10;99.90
57564;DHT22;43400;45.926;6.724;2022-09-09T03:44:14;15.00;99.90
57564;DHT22;43400;45.926;6.724;2022-09-09T03:46:46;14.90;99.90
57564;DHT22;43400;45.926;6.724;2022-09-09T03:49:17;14.90;99.90
57564;DHT22;43400;45.926;6.724;2022-09-09T03:51:49;14.90;99.90
57564;DHT22;43400;45.926;6.724;2022-09-09T03:54:21;14.90;99.90
57564;DHT22;43400;45.926;6.724;2022-09-09T03:56:52;14.90;99.90
57564;DHT22;43400;45.926;6.724;2022-09-09T03:59:24;14.80;99.90
57564;DHT22;43400;45.926;6.724;2022-09-09T04:01:56;14.80;99.90
57564;DHT22;43400;45.926;6.724;2022-09-09T04:04:28;14.80;99.90
57564;DHT22;43400;45.926;6.724;2022-09-09T04:06:59;14.80;99.90
57564;DHT22;43400;45.926;6.724;2022-09-09T04:09:30;14.70;99.90
57564;DHT22;43400;45.926;6.724;2022-09-09T04:12:02;14.80;99.90
57564;DHT22;43400;45.926;6.724;2022-09-09T04:14:34;14.80;99.90
57564;DHT22;43400;45.926;6.724;2022-09-09T04:17:05;14.80;99.90
57564;DHT22;43400;45.926;6.724;2022-09-09T04:19:37;14.80;99.90
57564;DHT22;43400;45.926;6.724;2022-09-09T04:22:09;14.60;99.90
57564;DHT22;43400;45.926;6.724;2022-09-09T04:24:40;14.70;99.90
57564;DHT22;43400;45.926;6.724;2022-09-09T04:27:12;14.70;99.90
57564;DHT22;43400;45.926;6.724;2022-09-09T04:29:43;14.50;99.90
57564;DHT22;43400;45.926;6.724;2022-09-09T04:32:15;14.40;99.90
57564;DHT22;43400;45.926;6.724;2022-09-09T04:34:46;14.40;99.90
57564;DHT22;43400;45.926;6.724;2022-09-09T04:37:18;14.40;99.90
57564;DHT22;43400;45.926;6.724;2022-09-09T04:39:49;14.40;99.90
57564;DHT22;43400;45.926;6.724;2022-09-09T04:42:21;14.30;99.90
57564;DHT22;43400;45.926;6.724;2022-09-09T04:44:52;14.30;99.90
57564;DHT22;43400;45.926;6.724;2022-09-09T04:47:24;14.20;99.90
57564;DHT22;43400;45.926;6.724;2022-09-09T04:49:56;14.10;99.90
57564;DHT22;43400;45.926;6.724;2022-09-09T04:52:27;14.10;99.90
57564;DHT22;43400;45.926;6.724;2022-09-09T04:54:59;14.00;99.90
57564;DHT22;43400;45.926;6.724;2022-09-09T04:57:30;14.00;99.90
57564;DHT22;43400;45.926;6.724;2022-09-09T05:00:02;13.90;99.90
57564;DHT22;43400;45.926;6.724;2022-09-09T05:02:37;13.90;99.90
57564;DHT22;43400;45.926;6.724;2022-09-09T05:05:09;13.90;99.90
57564;DHT22;43400;45.926;6.724;2022-09-09T05:07:40;13.80;99.90
57564;DHT22;43400;45.926;6.724;2022-09-09T05:10:12;13.70;99.90
57564;DHT22;43400;45.926;6.724;2022-09-09T05:12:52;13.70;99.90
57564;DHT22;43400;45.926;6.724;2022-09-09T05:15:23;13.60;99.90
57564;DHT22;43400;45.926;6.724;2022-09-09T05:18:02;13.60;99.90
57564;DHT22;43400;45.926;6.724;2022-09-09T05:20:33;13.60;99.90
57564;DHT22;43400;45.926;6.724;2022-09-09T05:23:05;13.60;99.90
57564;DHT22;43400;45.926;6.724;2022-09-09T05:25:39;13.70;99.90
57564;DHT22;43400;45.926;6.724;2022-09-09T05:28:10;13.70;99.90
57564;DHT22;43400;45.926;6.724;2022-09-09T05:30:42;13.70;99.90
57564;DHT22;43400;45.926;6.724;2022-09-09T05:33:13;13.60;99.90
57564;DHT22;43400;45.926;6.724;2022-09-09T05:35:45;13.60;99.90
57564;DHT22;43400;45.926;6.724;2022-09-09T05:38:16;13.50;99.90
57564;DHT22;43400;45.926;6.724;2022-09-09T05:40:48;13.50;99.90
57564;DHT22;43400;45.926;6.724;2022-09-09T05:43:20;13.40;99.90
57564;DHT22;43400;45.926;6.724;2022-09-09T05:46:15;13.50;99.90
57564;DHT22;43400;45.926;6.724;2022-09-09T05:48:48;13.50;99.90
57564;DHT22;43400;45.926;6.724;2022-09-09T05:51:25;13.50;99.90
57564;DHT22;43400;45.926;6.724;2022-09-09T05:53:57;13.50;99.90
57564;DHT22;43400;45.926;6.724;2022-09-09T05:56:29;13.60;99.90
57564;DHT22;43400;45.926;6.724;2022-09-09T05:59:01;13.70;99.90
57564;DHT22;43400;45.926;6.724;2022-09-09T06:01:35;13.70;99.90
57564;DHT22;43400;45.926;6.724;2022-09-09T06:04:07;13.60;99.90
57564;DHT22;43400;45.926;6.724;2022-09-09T06:06:39;13.70;99.90
57564;DHT22;43400;45.926;6.724;2022-09-09T06:09:10;13.70;99.90
57564;DHT22;43400;45.926;6.724;2022-09-09T06:11:42;13.70;99.90
57564;DHT22;43400;45.926;6.724;2022-09-09T06:14:14;13.70;99.90
57564;DHT22;43400;45.926;6.724;2022-09-09T06:16:45;13.70;99.90
57564;DHT22;43400;45.926;6.724;2022-09-09T06:19:17;13.70;99.90
57564;DHT22;43400;45.926;6.724;2022-09-09T06:21:48;13.70;99.90
57564;DHT22;43400;45.926;6.724;2022-09-09T06:24:20;13.60;99.90
57564;DHT22;43400;45.926;6.724;2022-09-09T06:26:52;13.70;99.90
57564;DHT22;43400;45.926;6.724;2022-09-09T06:29:23;13.70;99.90
57564;DHT22;43400;45.926;6.724;2022-09-09T06:31:55;13.80;99.90
57564;DHT22;43400;45.926;6.724;2022-09-09T06:34:27;13.90;99.90
57564;DHT22;43400;45.926;6.724;2022-09-09T06:36:59;14.00;99.90
57564;DHT22;43400;45.926;6.724;2022-09-09T06:39:31;14.00;99.90
57564;DHT22;43400;45.926;6.724;2022-09-09T06:42:02;14.00;99.90
57564;DHT22;43400;45.926;6.724;2022-09-09T06:44:34;14.00;99.90
57564;DHT22;43400;45.926;6.724;2022-09-09T06:47:06;14.00;99.90
57564;DHT22;43400;45.926;6.724;2022-09-09T06:49:37;13.90;99.90
57564;DHT22;43400;45.926;6.724;2022-09-09T06:52:09;13.90;99.90
57564;DHT22;43400;45.926;6.724;2022-09-09T06:54:40;13.90;99.90
57564;DHT22;43400;45.926;6.724;2022-09-09T06:57:12;13.80;99.90
57564;DHT22;43400;45.926;6.724;2022-09-09T06:59:44;13.90;99.90
57564;DHT22;43400;45.926;6.724;2022-09-09T07:02:16;14.10;99.90
57564;DHT22;43400;45.926;6.724;2022-09-09T07:04:47;14.10;99.90
57564;DHT22;43400;45.926;6.724;2022-09-09T07:07:18;14.10;99.90
57564;DHT22;43400;45.926;6.724;2022-09-09T07:09:50;14.10;99.90
57564;DHT22;43400;45.926;6.724;2022-09-09T07:12:21;14.10;99.90
57564;DHT22;43400;45.926;6.724;2022-09-09T07:14:53;14.20;99.90
57564;DHT22;43400;45.926;6.724;2022-09-09T07:17:24;14.10;99.90
57564;DHT22;43400;45.926;6.724;2022-09-09T07:19:56;14.10;99.90
57564;DHT22;43400;45.926;6.724;2022-09-09T07:22:28;14.10;99.90
57564;DHT22;43400;45.926;6.724;2022-09-09T07:24:59;14.10;99.90
57564;DHT22;43400;45.926;6.724;2022-09-09T07:27:31;14.10;99.90
57564;DHT22;43400;45.926;6.724;2022-09-09T07:30:03;14.10;99.90
57564;DHT22;43400;45.926;6.724;2022-09-09T07:32:35;14.00;99.90
57564;DHT22;43400;45.926;6.724;2022-09-09T07:35:07;14.00;99.90
57564;DHT22;43400;45.926;6.724;2022-09-09T07:37:38;14.10;99.90
57564;DHT22;43400;45.926;6.724;2022-09-09T07:40:10;14.00;99.90
57564;DHT22;43400;45.926;6.724;2022-09-09T07:42:41;14.10;99.90
57564;DHT22;43400;45.926;6.724;2022-09-09T07:45:13;14.10;99.90
57564;DHT22;43400;45.926;6.724;2022-09-09T07:47:45;14.20;99.90
57564;DHT22;43400;45.926;6.724;2022-09-09T07:50:16;14.30;99.90
57564;DHT22;43400;45.926;6.724;2022-09-09T07:52:48;14.50;99.90
57564;DHT22;43400;45.926;6.724;2022-09-09T07:55:21;14.50;99.90
57564;DHT22;43400;45.926;6.724;2022-09-09T07:57:53;14.50;99.90
57564;DHT22;43400;45.926;6.724;2022-09-09T08:00:25;14.60;99.90
57564;DHT22;43400;45.926;6.724;2022-09-09T08:02:56;14.70;99.90
57564;DHT22;43400;45.926;6.724;2022-09-09T08:05:28;14.80;99.90
57564;DHT22;43400;45.926;6.724;2022-09-09T08:08:00;14.90;99.90
57564;DHT22;43400;45.926;6.724;2022-09-09T08:10:31;15.20;99.90
57564;DHT22;43400;45.926;6.724;2022-09-09T08:13:03;15.20;99.90
57564;DHT22;43400;45.926;6.724;2022-09-09T08:15:34;15.20;99.90
57564;DHT22;43400;45.926;6.724;2022-09-09T08:18:06;15.40;99.90
57564;DHT22;43400;45.926;6.724;2022-09-09T08:20:38;15.40;99.90
57564;DHT22;43400;45.926;6.724;2022-09-09T08:23:09;15.60;99.90
57564;DHT22;43400;45.926;6.724;2022-09-09T08:25:41;15.70;99.90
57564;DHT22;43400;45.926;6.724;2022-09-09T08:28:12;15.90;99.90
57564;DHT22;43400;45.926;6.724;2022-09-09T08:30:44;16.00;99.90
57564;DHT22;43400;45.926;6.724;2022-09-09T08:33:15;16.20;99.90
57564;DHT22;43400;45.926;6.724;2022-09-09T08:35:51;16.40;99.90
57564;DHT22;43400;45.926;6.724;2022-09-09T08:38:22;16.50;99.90
57564;DHT22;43400;45.926;6.724;2022-09-09T08:40:58;16.70;99.90
57564;DHT22;43400;45.926;6.724;2022-09-09T08:43:32;16.70;99.90
57564;DHT22;43400;45.926;6.724;2022-09-09T08:46:18;16.80;99.90
57564;DHT22;43400;45.926;6.724;2022-09-09T08:49:07;17.10;99.90
57564;DHT22;43400;45.926;6.724;2022-09-09T08:51:48;17.10;97.70
57564;DHT22;43400;45.926;6.724;2022-09-09T08:54:20;17.20;97.70
57564;DHT22;43400;45.926;6.724;2022-09-09T08:56:52;17.30;97.00
57564;DHT22;43400;45.926;6.724;2022-09-09T08:59:23;17.50;96.10
57564;DHT22;43400;45.926;6.724;2022-09-09T09:02:17;17.70;94.40
57564;DHT22;43400;45.926;6.724;2022-09-09T09:05:17;17.80;92.60
57564;DHT22;43400;45.926;6.724;2022-09-09T09:10:48;18.00;92.50
57564;DHT22;43400;45.926;6.724;2022-09-09T09:16:10;18.10;92.20
57564;DHT22;43400;45.926;6.724;2022-09-09T09:18:44;18.20;91.10
57564;DHT22;43400;45.926;6.724;2022-09-09T09:24:55;18.50;91.10
57564;DHT22;43400;45.926;6.724;2022-09-09T09:30:19;18.90;87.60
57564;DHT22;43400;45.926;6.724;2022-09-09T09:33:04;19.10;86.80
57564;DHT22;43400;45.926;6.724;2022-09-09T09:35:37;19.10;86.30
57564;DHT22;43400;45.926;6.724;2022-09-09T09:38:26;19.20;87.20
57564;DHT22;43400;45.926;6.724;2022-09-09T09:40:59;19.40;86.30
57564;DHT22;43400;45.926;6.724;2022-09-09T09:43:32;19.40;85.70
57564;DHT22;43400;45.926;6.724;2022-09-09T09:46:05;19.50;89.90
57564;DHT22;43400;45.926;6.724;2022-09-09T09:48:37;19.90;88.90
57564;DHT22;43400;45.926;6.724;2022-09-09T09:51:11;20.00;86.90
57564;DHT22;43400;45.926;6.724;2022-09-09T09:53:45;20.10;82.20
57564;DHT22;43400;45.926;6.724;2022-09-09T09:56:16;20.20;79.90
57564;DHT22;43400;45.926;6.724;2022-09-09T09:58:57;20.40;78.80
57564;DHT22;43400;45.926;6.724;2022-09-09T10:01:32;20.60;76.90
57564;DHT22;43400;45.926;6.724;2022-09-09T10:04:22;20.80;75.10
57564;DHT22;43400;45.926;6.724;2022-09-09T10:06:54;21.00;73.50
57564;DHT22;43400;45.926;6.724;2022-09-09T10:09:30;21.00;72.70
57564;DHT22;43400;45.926;6.724;2022-09-09T10:20:13;21.60;70.50
57564;DHT22;43400;45.926;6.724;2022-09-09T10:22:51;21.80;70.00
57564;DHT22;43400;45.926;6.724;2022-09-09T10:28:52;22.20;69.80
57564;DHT22;43400;45.926;6.724;2022-09-09T10:37:56;22.80;62.70
57564;DHT22;43400;45.926;6.724;2022-09-09T10:40:38;22.80;63.90
57564;DHT22;43400;45.926;6.724;2022-09-09T10:46:56;23.00;64.50
57564;DHT22;43400;45.926;6.724;2022-09-09T10:52:05;22.80;60.50
57564;DHT22;43400;45.926;6.724;2022-09-09T11:00:04;24.30;53.60
57564;DHT22;43400;45.926;6.724;2022-09-09T11:02:36;24.80;52.70
57564;DHT22;43400;45.926;6.724;2022-09-09T11:05:31;24.80;49.20
57564;DHT22;43400;45.926;6.724;2022-09-09T11:08:21;25.20;49.20
57564;DHT22;43400;45.926;6.724;2022-09-09T11:21:53;26.50;43.60
57564;DHT22;43400;45.926;6.724;2022-09-09T11:24:39;26.40;43.50
57564;DHT22;43400;45.926;6.724;2022-09-09T11:30:20;24.70;46.10
57564;DHT22;43400;45.926;6.724;2022-09-09T11:35:42;25.50;41.70
57564;DHT22;43400;45.926;6.724;2022-09-09T11:38:25;25.80;42.80
57564;DHT22;43400;45.926;6.724;2022-09-09T11:41:01;26.00;40.90
57564;DHT22;43400;45.926;6.724;2022-09-09T11:43:46;26.00;41.80
57564;DHT22;43400;45.926;6.724;2022-09-09T11:46:31;26.10;40.80
57564;DHT22;43400;45.926;6.724;2022-09-09T11:49:22;26.40;41.80
57564;DHT22;43400;45.926;6.724;2022-09-09T11:51:56;26.90;42.20
57564;DHT22;43400;45.926;6.724;2022-09-09T11:54:33;26.70;41.60
57564;DHT22;43400;45.926;6.724;2022-09-09T11:59:56;27.00;41.90
57564;DHT22;43400;45.926;6.724;2022-09-09T12:02:29;27.30;41.60
57564;DHT22;43400;45.926;6.724;2022-09-09T12:05:19;27.00;40.80
57564;DHT22;43400;45.926;6.724;2022-09-09T12:07:55;27.60;40.00
57564;DHT22;43400;45.926;6.724;2022-09-09T12:10:33;27.40;41.30
57564;DHT22;43400;45.926;6.724;2022-09-09T12:13:23;27.30;41.20
57564;DHT22;43400;45.926;6.724;2022-09-09T12:15:57;27.30;42.30
57564;DHT22;43400;45.926;6.724;2022-09-09T12:18:34;27.40;42.80
57564;DHT22;43400;45.926;6.724;2022-09-09T12:24:56;27.20;40.20
57564;DHT22;43400;45.926;6.724;2022-09-09T12:27:45;26.70;42.00
57564;DHT22;43400;45.926;6.724;2022-09-09T12:30:19;27.70;44.30
57564;DHT22;43400;45.926;6.724;2022-09-09T12:33:06;27.50;41.40
57564;DHT22;43400;45.926;6.724;2022-09-09T12:35:42;27.80;40.50
57564;DHT22;43400;45.926;6.724;2022-09-09T12:38:36;28.20;40.40
57564;DHT22;43400;45.926;6.724;2022-09-09T12:41:25;27.70;40.80
57564;DHT22;43400;45.926;6.724;2022-09-09T12:44:09;27.10;41.10
57564;DHT22;43400;45.926;6.724;2022-09-09T12:46:44;27.60;42.90
57564;DHT22;43400;45.926;6.724;2022-09-09T12:49:30;28.30;40.10
57564;DHT22;43400;45.926;6.724;2022-09-09T12:52:29;28.10;41.00
57564;DHT22;43400;45.926;6.724;2022-09-09T12:55:05;29.20;40.40
57564;DHT22;43400;45.926;6.724;2022-09-09T12:57:39;28.80;39.80
57564;DHT22;43400;45.926;6.724;2022-09-09T13:00:24;28.60;41.10
57564;DHT22;43400;45.926;6.724;2022-09-09T13:02:58;28.40;40.60
57564;DHT22;43400;45.926;6.724;2022-09-09T13:05:38;28.70;40.30
57564;DHT22;43400;45.926;6.724;2022-09-09T13:08:11;29.90;38.60
57564;DHT22;43400;45.926;6.724;2022-09-09T13:10:50;29.80;39.30
57564;DHT22;43400;45.926;6.724;2022-09-09T13:13:26;29.70;42.40
57564;DHT22;43400;45.926;6.724;2022-09-09T13:15:59;29.80;40.50
57564;DHT22;43400;45.926;6.724;2022-09-09T13:18:34;29.50;38.20
57564;DHT22;43400;45.926;6.724;2022-09-09T13:21:06;29.50;39.20
57564;DHT22;43400;45.926;6.724;2022-09-09T13:23:38;30.30;40.50
57564;DHT22;43400;45.926;6.724;2022-09-09T13:26:25;30.40;38.60
57564;DHT22;43400;45.926;6.724;2022-09-09T13:29:18;29.90;39.50
57564;DHT22;43400;45.926;6.724;2022-09-09T13:31:50;29.50;40.70
57564;DHT22;43400;45.926;6.724;2022-09-09T13:34:30;29.40;42.70
57564;DHT22;43400;45.926;6.724;2022-09-09T13:37:04;29.40;40.80
57564;DHT22;43400;45.926;6.724;2022-09-09T13:39:37;28.90;41.30
57564;DHT22;43400;45.926;6.724;2022-09-09T13:42:24;29.80;40.40
57564;DHT22;43400;45.926;6.724;2022-09-09T13:44:58;29.00;39.70
57564;DHT22;43400;45.926;6.724;2022-09-09T13:47:33;28.50;39.60
57564;DHT22;43400;45.926;6.724;2022-09-09T13:50:28;28.10;41.60
57564;DHT22;43400;45.926;6.724;2022-09-09T13:53:00;26.80;43.40
57564;DHT22;43400;45.926;6.724;2022-09-09T13:55:32;25.90;44.30
57564;DHT22;43400;45.926;6.724;2022-09-09T13:58:04;26.20;45.50
57564;DHT22;43400;45.926;6.724;2022-09-09T14:00:35;26.10;44.00
57564;DHT22;43400;45.926;6.724;2022-09-09T14:03:07;25.80;44.40
57564;DHT22;43400;45.926;6.724;2022-09-09T14:05:38;26.70;44.50
57564;DHT22;43400;45.926;6.724;2022-09-09T14:08:16;27.20;43.70
57564;DHT22;43400;45.926;6.724;2022-09-09T14:10:50;27.50;43.20
57564;DHT22;43400;45.926;6.724;2022-09-09T14:13:22;27.20;43.60
57564;DHT22;43400;45.926;6.724;2022-09-09T14:15:54;26.80;43.60
57564;DHT22;43400;45.926;6.724;2022-09-09T14:18:25;27.20;44.50
57564;DHT22;43400;45.926;6.724;2022-09-09T14:20:57;28.10;43.60
57564;DHT22;43400;45.926;6.724;2022-09-09T14:23:29;28.20;42.50
57564;DHT22;43400;45.926;6.724;2022-09-09T14:26:01;28.70;42.40
57564;DHT22;43400;45.926;6.724;2022-09-09T14:28:34;28.80;41.60
57564;DHT22;43400;45.926;6.724;2022-09-09T14:31:07;28.90;41.00
57564;DHT22;43400;45.926;6.724;2022-09-09T14:33:38;29.00;41.40
57564;DHT22;43400;45.926;6.724;2022-09-09T14:36:10;28.50;41.30
57564;DHT22;43400;45.926;6.724;2022-09-09T14:38:42;27.10;41.50
57564;DHT22;43400;45.926;6.724;2022-09-09T14:41:16;26.20;43.50
57564;DHT22;43400;45.926;6.724;2022-09-09T14:43:48;26.00;43.80
57564;DHT22;43400;45.926;6.724;2022-09-09T14:46:20;26.50;42.80
57564;DHT22;43400;45.926;6.724;2022-09-09T14:48:52;26.00;43.20
57564;DHT22;43400;45.926;6.724;2022-09-09T14:51:25;26.10;43.20
57564;DHT22;43400;45.926;6.724;2022-09-09T14:53:58;25.40;44.50
57564;DHT22;43400;45.926;6.724;2022-09-09T14:56:34;24.90;44.80
57564;DHT22;43400;45.926;6.724;2022-09-09T14:59:05;24.90;44.70
57564;DHT22;43400;45.926;6.724;2022-09-09T15:01:37;24.60;44.70
57564;DHT22;43400;45.926;6.724;2022-09-09T15:04:12;24.30;44.70
57564;DHT22;43400;45.926;6.724;2022-09-09T15:06:44;24.10;45.50
57564;DHT22;43400;45.926;6.724;2022-09-09T15:09:15;24.00;45.80
57564;DHT22;43400;45.926;6.724;2022-09-09T15:11:47;23.90;46.10
57564;DHT22;43400;45.926;6.724;2022-09-09T15:14:18;23.60;46.30
57564;DHT22;43400;45.926;6.724;2022-09-09T15:16:50;23.50;46.10
57564;DHT22;43400;45.926;6.724;2022-09-09T15:19:21;23.30;47.30
57564;DHT22;43400;45.926;6.724;2022-09-09T15:21:53;23.20;47.00
57564;DHT22;43400;45.926;6.724;2022-09-09T15:24:24;23.10;47.50
57564;DHT22;43400;45.926;6.724;2022-09-09T15:26:56;22.90;47.70
57564;DHT22;43400;45.926;6.724;2022-09-09T15:29:28;22.80;48.40
57564;DHT22;43400;45.926;6.724;2022-09-09T15:32:00;22.80;48.40
57564;DHT22;43400;45.926;6.724;2022-09-09T15:34:31;22.80;47.90
57564;DHT22;43400;45.926;6.724;2022-09-09T15:37:03;22.70;48.60
57564;DHT22;43400;45.926;6.724;2022-09-09T15:39:34;22.80;48.40
57564;DHT22;43400;45.926;6.724;2022-09-09T15:42:06;22.80;48.60
57564;DHT22;43400;45.926;6.724;2022-09-09T15:44:39;22.80;48.40
57564;DHT22;43400;45.926;6.724;2022-09-09T15:47:12;22.90;49.10
57564;DHT22;43400;45.926;6.724;2022-09-09T15:49:43;23.10;48.80
57564;DHT22;43400;45.926;6.724;2022-09-09T15:52:15;23.00;47.10
57564;DHT22;43400;45.926;6.724;2022-09-09T15:54:47;22.80;47.80
57564;DHT22;43400;45.926;6.724;2022-09-09T15:57:19;23.00;47.80
57564;DHT22;43400;45.926;6.724;2022-09-09T15:59:50;22.70;47.20
57564;DHT22;43400;45.926;6.724;2022-09-09T16:02:22;22.50;47.30
57564;DHT22;43400;45.926;6.724;2022-09-09T16:04:53;22.60;48.00
57564;DHT22;43400;45.926;6.724;2022-09-09T16:07:25;22.90;48.90
57564;DHT22;43400;45.926;6.724;2022-09-09T16:09:57;23.00;47.50
57564;DHT22;43400;45.926;6.724;2022-09-09T16:12:28;22.90;47.40
57564;DHT22;43400;45.926;6.724;2022-09-09T16:15:00;22.70;48.20
57564;DHT22;43400;45.926;6.724;2022-09-09T16:17:31;22.70;48.70
57564;DHT22;43400;45.926;6.724;2022-09-09T16:20:03;22.60;47.80
57564;DHT22;43400;45.926;6.724;2022-09-09T16:22:35;22.50;49.40
57564;DHT22;43400;45.926;6.724;2022-09-09T16:25:07;22.30;49.50
57564;DHT22;43400;45.926;6.724;2022-09-09T16:27:38;22.30;49.40
57564;DHT22;43400;45.926;6.724;2022-09-09T16:30:10;22.40;48.80
57564;DHT22;43400;45.926;6.724;2022-09-09T16:32:42;22.50;50.40
57564;DHT22;43400;45.926;6.724;2022-09-09T16:35:13;22.60;50.70
57564;DHT22;43400;45.926;6.724;2022-09-09T16:37:45;22.60;52.10
57564;DHT22;43400;45.926;6.724;2022-09-09T16:40:16;22.60;52.20
57564;DHT22;43400;45.926;6.724;2022-09-09T16:42:48;22.70;54.00
57564;DHT22;43400;45.926;6.724;2022-09-09T16:45:19;22.60;54.20
57564;DHT22;43400;45.926;6.724;2022-09-09T16:47:51;22.60;54.10
57564;DHT22;43400;45.926;6.724;2022-09-09T16:50:23;22.50;55.20
57564;DHT22;43400;45.926;6.724;2022-09-09T16:52:54;22.40;56.60
57564;DHT22;43400;45.926;6.724;2022-09-09T16:55:26;22.40;57.70
57564;DHT22;43400;45.926;6.724;2022-09-09T16:57:57;22.40;56.50
57564;DHT22;43400;45.926;6.724;2022-09-09T17:00:29;22.30;57.60
57564;DHT22;43400;45.926;6.724;2022-09-09T17:03:01;22.40;54.20
57564;DHT22;43400;45.926;6.724;2022-09-09T17:05:32;22.40;53.40
57564;DHT22;43400;45.926;6.724;2022-09-09T17:08:04;22.40;52.20
57564;DHT22;43400;45.926;6.724;2022-09-09T17:10:41;22.40;54.60
57564;DHT22;43400;45.926;6.724;2022-09-09T17:13:12;22.30;56.30
57564;DHT22;43400;45.926;6.724;2022-09-09T17:15:44;22.10;56.70
57564;DHT22;43400;45.926;6.724;2022-09-09T17:18:16;21.90;57.80
57564;DHT22;43400;45.926;6.724;2022-09-09T17:20:48;21.80;58.60
57564;DHT22;43400;45.926;6.724;2022-09-09T17:23:20;21.60;58.90
57564;DHT22;43400;45.926;6.724;2022-09-09T17:25:59;21.50;59.10
57564;DHT22;43400;45.926;6.724;2022-09-09T17:28:31;21.40;60.00
57564;DHT22;43400;45.926;6.724;2022-09-09T17:31:03;21.30;57.00
57564;DHT22;43400;45.926;6.724;2022-09-09T17:33:37;21.30;59.30
57564;DHT22;43400;45.926;6.724;2022-09-09T17:36:25;21.10;59.80
57564;DHT22;43400;45.926;6.724;2022-09-09T17:38:57;20.90;60.90
57564;DHT22;43400;45.926;6.724;2022-09-09T17:41:32;20.70;60.50
57564;DHT22;43400;45.926;6.724;2022-09-09T17:44:07;20.60;61.30
57564;DHT22;43400;45.926;6.724;2022-09-09T17:46:41;20.60;62.50
57564;DHT22;43400;45.926;6.724;2022-09-09T17:49:15;20.60;61.50
57564;DHT22;43400;45.926;6.724;2022-09-09T17:51:47;20.50;60.10
57564;DHT22;43400;45.926;6.724;2022-09-09T17:54:20;20.50;60.20
57564;DHT22;43400;45.926;6.724;2022-09-09T17:56:51;20.50;59.70
57564;DHT22;43400;45.926;6.724;2022-09-09T17:59:23;20.40;60.10
57564;DHT22;43400;45.926;6.724;2022-09-09T18:01:54;20.40;61.20